NWS Home NWS Lubbock West Texas Mesonet Day over Day changes as of 1032 AM, Tue Jul 17, 2018

Latest   N   C   S   Daily Sum   3hrΔ   24hrΔ   Soil Data 
Site Map   24hr Precip   72hr Precip   Google Plot


Station Time of Last Temp Today Temp Yesterday Delta-T Dewpoint Today Dewpoint Yesterday Delta-Td Delta-Pressure (mB)
Reese Center  10:25 AM 84.5 84.2 0.3 55 55.9 -0.9 0.9
Abernathy  10:25 AM 87.6 85 2.6 57.3 59.6 -2.3 0.7
Plainview  09:55 AM 82.9 80.4 2.5 61.3 63.1 -1.8 0.6
Tahoka  10:25 AM 85.5 84.1 1.5 55.2 62.7 -7.5 0.9
Slaton  10:25 AM 85.1 85.5 -0.4 55.3 57.2 -1.9 0.8
Levelland  10:25 AM 84.1 83.8 0.3 57.5 56 1.5 0.9
Roaring Springs  10:25 AM 88.6 86 2.6 60.7 66.2 -5.5 0.4
Floydada  10:25 AM 87.5 83.9 3.6 58.3 63.9 -5.6 0.6
Ralls  10:25 AM 86.7 86 0.6 56.7 60.6 -3.9 0.9
Brownfield  10:25 AM 84.7 83.7 1 55.1 60 -4.8 0.9
Muleshoe  10:25 AM 81.8 80.8 1 64.2 62.9 1.2 0.5
Morton  10:25 AM 86.7 81.9 4.8 55.5 60.2 -4.6 0.8
O'Donnell  10:25 AM 82.7 81.8 0.9 54.2 61.9 -7.7 1
Seagraves  10:25 AM 85 84.2 0.8 56.4 59.4 -3 1
Amherst  10:25 AM 82.9 81.2 1.7 59.1 62.2 -3.2 0.7
Plains  10:25 AM 84.4 82.8 1.6 56 57.2 -1.1 0.8
Lamesa  10:25 AM 83.6 83 0.5 57.9 62.3 -4.4 1.1
Hart  10:25 AM 85.5 83.8 1.7 60.3 61.5 -1.2 0.6
Friona  10:25 AM 85.5 82.3 3.2 58.5 59.6 -1 0.5
Dimmitt  10:25 AM 85.4 80.2 5.2 57.4 64.2 -6.8 0.4
Tulia  10:25 AM 87.5 84.4 3.1 59.3 62.3 -3.1 0.5
Silverton  10:25 AM 89.7 87.7 2 57.1 59.4 -2.3 0.4
Post  10:25 AM 86.7 87 -0.3 55.1 61.1 -6 1
Seminole  10:25 AM 82.9 82.4 0.5 54.2 58.2 -3.9 1.1
Gail  10:25 AM 85.5 86.7 -1.2 56.7 59.2 -2.5 1.2
White River Lake  10:25 AM 86.1 85.6 0.5 56.3 62.3 -6 1
Graham  10:25 AM 84.7 85.7 -1.1 53.9 57.2 -3.3 1.2
Sundown  10:25 AM 85.9 83.9 2 55.7 56.4 -0.7 1
Anton  10:25 AM 85.9 84.6 1.4 57.8 60.8 -3 0.9
Fluvanna  10:25 AM 84.7 84.9 -0.1 53.4 58.3 -4.9 1.2
Spur  10:25 AM 86.9 86.1 0.8 53.5 60.4 -6.9 1
Northwest Lubbock  10:25 AM 85.9 86.3 -0.3 56.7 56.8 -0.1 0.9
Guthrie  10:25 AM 88.2 90.3 -2.1 57.3 60.3 -3 0.8
Clarendon  10:25 AM 89 87.7 1.4 58.2 60.7 -2.6 0.3
Paducah  10:25 AM 92.3 89.4 2.9 56.8 63 -6.2 0.5
Snyder  10:25 AM 85.1 85.4 -0.3 60.3 65.3 -5 1.2
Memphis  10:25 AM 89.4 87.5 1.9 60.6 63.2 -2.6 0.2
Jayton  10:25 AM 89.3 88.8 0.5 54.2 59.2 -5 1
Pampa  10:25 AM 85.8 85.9 -0.1 65.1 63.5 1.6 0.5
Aspermont  10:25 AM 89.8 88.7 1.2 60.4 63.2 -2.8 1
Hereford  10:25 AM 85 82.3 2.6 55.5 55 0.4 0.5
Goodlett  10:25 AM 92.3 87.8 4.6 57.7 61.9 -4.2 0.3
McLean  10:25 AM 90.6 88.2 2.3 55 57.6 -2.6 0.3
Denver City  10:25 AM 81.8 81.4 0.4 55.3 58.1 -2.8 0.9
Lake Alan Henry  10:25 AM 87.5 88.7 -1.2 57.4 61.2 -3.7 1
Wolfforth  10:25 AM 84.3 85.2 -0.9 57.3 58.9 -1.7 0.9
Andrews  10:25 AM 84.6 83.9 0.7 54.6 58.6 -3.9 1.1
Turkey  10:25 AM 92.7 85.9 6.8 58.3 62.1 -3.7 -0.1
Childress  10:25 AM 91.5 87 4.6 58 64.6 -6.6 0.3
Tatum  10:25 AM 86.4 84.3 2.1 52.8 55.1 -2.3 0.7
Northfield  10:25 AM 91.8 86 5.8 58.9 63.9 -4.9 0.1
Dora  10:25 AM 84.5 79.2 5.3 55 61.2 -6.2 0.7
Northwest San Angelo  10:25 AM 85.8 84.7 1.1 61.2 67.6 -6.4 1
Saint Lawrence  10:25 AM 85.4 82.1 3.3 59.2 65.9 -6.6 1.2
Haskell  10:25 AM 88.1 85.6 2.5 57.3 63.8 -6.5 0.8
Wall  10:25 AM 87 86.6 0.4 60.3 68.8 -8.5 1.1
Seymour  10:25 AM 90.7 87.3 3.4 60 65 -5 0.7
Knox City  10:25 AM 92.8 87.5 5.3 58.7 66.3 -7.6 0.6
Guadalupe Mtns Park  10:25 AM 74.4 75 -0.6 60 56.2 3.8 1.1
Caprock Canyons   10:25 AM 91.1 86.5 4.6 56.8 62.3 -5.5 0
Odell  10:25 AM 93.7 87.7 6 59.4 68.2 -8.9 0.2
Coyanosa  10:25 AM 84.6 82.8 1.9 64 65.8 -1.7 1
Big Lake  10:25 AM 84.9 82.7 2.3 62.7 68.7 -5.9 1.1
Junction  10:25 AM 84.1 86 -1.9 63.9 68.9 -5 1.4
Hobbs  10:25 AM 81.4 82.3 -0.8 54.5 57.4 -2.9 1
Canadian  10:25 AM 88.4 86 2.5 65.4 68.7 -3.4 0.1
Palo Duro Canyon State Park Rim  10:25 AM 86.3 86.5 -0.2 64 61.9 2.1 0.6
Bootleg  10:25 AM 86.8 82.1 4.7 56.7 58.3 -1.6 0.3
Sterling City  10:25 AM 86.4 84.6 1.8 62.2 67 -4.8 1.2
Mertzon  10:25 AM 87.4 86.4 1 64 69.4 -5.4 1.1
Persimmon Gap  10:25 AM 81.4 79 2.4 61.3 65.1 -3.8 1
Weinert  10:25 AM 90.4 87.2 3.2 62 66.6 -4.6 0.8
Claude 12 Southwest  10:25 AM 83.8 83.3 0.4 62.1 66 -3.9 0.5
Amarillo 7 South Southeast  10:25 AM 85.2 82.9 2.4 62.1 62.7 -0.6 0.4
Umbarger  10:25 AM 86.5 82.1 4.4 60 63.9 -3.9 0.5
Lomax  10:25 AM 86.5 85.1 1.4 58.3 62.9 -4.6 1.1
Amarillo 9 North Northeast  10:25 AM 87.9 82.3 5.6 60.9 61.9 -1 -0
Aiken 3 West Southwest  10:25 AM 88.3 83.2 5.2 60.7 64.5 -3.7 0.5
Sweetwater  10:25 AM 85.3 83.8 1.6 64.3 69.9 -5.5 1.1
Dozier  10:25 AM 91.5 89.9 1.6 63.7 64.2 -0.5 0.1
Amarillo 15 North Northwest  10:25 AM 87.4 81.6 5.8 60.8 64 -3.2 0
Menard  10:25 AM 86.2 83.7 2.5 59.7 69.6 -9.9 1.2
Tarzan  10:25 AM 84.7 85 -0.4 59 60.9 -1.9 1.2
Goodnight  10:25 AM 90.2 88.1 2.2 61 62.2 -1.1 0.4
Boys Ranch   10:25 AM 85.9 83.2 2.6 61.8 64 -2.2 -0.1
Fort McKavett  10:25 AM 85.9 84.5 1.4 60.5 69 -8.5 1.3
Fort Chadbourne  10:25 AM 86.6 84.8 1.8 64.5 69.5 -5.1 1
Palo Duro Canyon State Park Floor  10:25 AM 86.5 90.4 -4 66 64 2 0.6
Fort Lancaster  10:25 AM 84 83.8 0.3 65.4 69.8 -4.4 1.3
Dell City 1N  10:25 AM 74.9 76.7 -1.7 67.5 64.2 3.3 1.4
Clyde  10:25 AM 87.3 86 1.3 62.2 70.1 -7.9 1
Snyder SSW  10:25 AM 85.3 84.4 0.9 61 66 -5 1.1
Panhandle  10:25 AM 83.8 82.8 1 64.9 64.6 0.3 0.5
Vigo Park  10:25 AM 89.1 85.3 3.8 59.3 63 -3.7 0.4
Welch  10:25 AM 84.9 84.6 0.3 58.9 62.3 -3.4 1.2
Throckmorton  10:25 AM 90.5 90.2 0.2 63.8 70.4 -6.6 0.7
Sierra Blanca  10:25 AM 76.4 73.9 2.5 60.5 60.7 -0.2 1.4
Fort Lewis CO  10:25 AM 68.5 71.7 -3.2 54.7 52.5 2.3 0.9
New Home  10:25 AM 85.2 85 0.2 58.9 61.2 -2.3 1
McCamey  10:25 AM 84.9 84.1 0.9 60.2 68 -7.8 1.2
Stamford  10:25 AM 88.4 84.7 3.7 65.1 70.9 -5.8 0.9
Crowell  10:25 AM 92.8 88.6 4.1 60.2 66.2 -6 0.4
Stinnett  10:25 AM 84.3 83.7 0.6 61.8 62.1 -0.3 0.4
Colorado City  10:25 AM 88.3 86.1 2.2 61.3 67.4 -6.1 1
Happy  10:25 AM 87.4 85.4 2 58.9 60.9 -2 0.5
Endee  10:25 AM 84.9 79.6 5.3 57.6 62.2 -4.7 0.1
JA Ranch  10:25 AM 89.2 85.8 3.4 62.4 69.8 -7.4 0.3
Adrian  10:25 AM 84.9 80 4.9 56.8 59.8 -2.9 0.1
Lesley  10:25 AM 89.2 86.8 2.4 65.2 67.4 -2.2 0.2
Earth  10:25 AM 86 82.5 3.5 60.8 64.7 -3.9 0.6
Van Horn  10:25 AM 76.4 76.9 -0.5 62.5 62.9 -0.4 1.5
Rotan  10:25 AM 86.2 85.9 0.3 61.7 66.6 -4.9 1.2
Fritch  10:25 AM 85.8 81.2 4.6 62.6 64.7 -2.2 0.2
Estelline  10:25 AM 94.2 88.5 5.7 61.2 64.3 -3.1 0.1
Olton  10:25 AM 84 82.9 1.1 59.1 61 -1.9 0.7

West Texas Mesonet Home   Site Map/Menu  NWS Lubbock Soil Data  Daily Summary Page  24hr Precip  72hr Precip  Google Plot